createdAt,value
2023-05-22T00:02:24.969Z,3.80
2023-05-22T00:04:52.541Z,4.25
2023-05-22T00:07:19.858Z,4.05
2023-05-22T00:09:47.130Z,3.90
2023-05-22T00:12:14.342Z,3.45
2023-05-22T00:14:41.553Z,3.75
2023-05-22T00:17:10.335Z,3.88
2023-05-22T00:19:38.421Z,3.88
2023-05-22T00:22:06.154Z,3.60
2023-05-22T00:24:33.390Z,4.57
2023-05-22T00:27:00.810Z,3.70
2023-05-22T00:29:28.065Z,4.18
2023-05-22T00:31:57.341Z,4.32
2023-05-22T00:34:24.846Z,3.88
2023-05-22T00:36:52.052Z,3.83
2023-05-22T00:39:19.364Z,3.92
2023-05-22T00:41:46.819Z,4.38
2023-05-22T00:44:14.316Z,4.10
2023-05-22T00:46:41.695Z,4.18
2023-05-22T00:49:09.959Z,4.20
2023-05-22T00:51:37.317Z,4.45
2023-05-22T00:54:06.195Z,4.07
2023-05-22T00:56:33.836Z,4.70
2023-05-22T00:59:01.346Z,4.45
2023-05-22T01:01:33.651Z,4.20
2023-05-22T01:04:02.024Z,4.30
2023-05-22T01:06:32.310Z,4.22
2023-05-22T01:08:59.633Z,4.50
2023-05-22T01:11:40.358Z,4.40
2023-05-22T01:14:45.355Z,4.47
2023-05-22T01:17:37.510Z,4.65
2023-05-22T01:20:37.496Z,4.10
2023-05-22T01:24:06.685Z,3.67
2023-05-22T01:27:26.241Z,3.78
2023-05-22T01:30:05.823Z,4.32
2023-05-22T01:32:36.850Z,4.95
2023-05-22T01:35:10.947Z,4.20
2023-05-22T01:37:40.199Z,3.88
2023-05-22T01:40:08.278Z,4.13
2023-05-22T01:42:41.265Z,4.15
2023-05-22T01:45:12.380Z,4.47
2023-05-22T01:47:39.738Z,4.40
2023-05-22T01:50:07.891Z,4.53
2023-05-22T01:52:55.910Z,4.55
2023-05-22T01:55:43.104Z,4.47
2023-05-22T01:58:25.380Z,4.88
2023-05-22T02:00:56.552Z,4.30
2023-05-22T02:03:31.755Z,4.35
2023-05-22T02:06:03.397Z,4.20
2023-05-22T02:08:32.129Z,4.57
2023-05-22T02:11:02.307Z,4.13
2023-05-22T02:13:30.516Z,3.58
2023-05-22T02:15:58.496Z,3.55
2023-05-22T02:18:30.999Z,3.63
2023-05-22T02:20:59.404Z,3.63
2023-05-22T02:23:29.852Z,3.33
2023-05-22T02:25:57.636Z,3.67
2023-05-22T02:28:25.166Z,3.45
2023-05-22T02:30:52.440Z,3.83
2023-05-22T02:33:19.873Z,3.47
2023-05-22T02:35:49.958Z,5.18
2023-05-22T02:38:17.288Z,5.47
2023-05-22T02:40:45.414Z,5.60
2023-05-22T02:43:12.864Z,6.90
2023-05-22T02:45:40.419Z,4.22
2023-05-22T02:48:07.790Z,3.58
2023-05-22T02:50:35.215Z,4.35
2023-05-22T02:53:02.581Z,17.08
2023-05-22T02:55:29.942Z,7.97
2023-05-22T02:57:58.815Z,5.20
2023-05-22T03:00:26.081Z,4.68
2023-05-22T03:02:55.396Z,5.80
2023-05-22T03:05:23.268Z,6.47
2023-05-22T03:07:52.950Z,4.95
2023-05-22T03:10:20.260Z,5.03
2023-05-22T03:12:48.553Z,4.95
2023-05-22T03:15:16.002Z,4.88
2023-05-22T03:17:44.930Z,7.22
2023-05-22T03:20:16.736Z,4.90
2023-05-22T03:22:45.959Z,4.95
2023-05-22T03:25:14.078Z,4.60
2023-05-22T03:27:41.504Z,5.03
2023-05-22T03:30:09.749Z,5.80
2023-05-22T03:32:39.092Z,5.13
2023-05-22T03:35:07.521Z,4.85
2023-05-22T03:37:35.508Z,5.00
2023-05-22T03:40:04.945Z,4.88
2023-05-22T03:42:32.537Z,4.60
2023-05-22T03:45:00.010Z,4.50
2023-05-22T03:47:27.447Z,6.88
2023-05-22T03:49:54.747Z,4.78
2023-05-22T03:52:23.821Z,12.70
2023-05-22T03:54:51.439Z,12.00
2023-05-22T03:57:20.142Z,7.35
2023-05-22T03:59:47.676Z,10.13
2023-05-22T04:02:16.915Z,8.13
2023-05-22T04:04:46.513Z,4.40
2023-05-22T04:07:13.934Z,4.70
2023-05-22T04:09:41.590Z,4.55
2023-05-22T04:12:09.088Z,4.88
2023-05-22T04:14:36.422Z,4.47
2023-05-22T04:17:03.903Z,3.97
2023-05-22T04:19:31.394Z,4.68
2023-05-22T04:21:59.256Z,4.03
2023-05-22T04:24:27.802Z,4.53
2023-05-22T04:26:56.294Z,4.10
2023-05-22T04:29:24.373Z,4.75
2023-05-22T04:31:54.583Z,4.00
2023-05-22T04:34:22.391Z,4.63
2023-05-22T04:36:49.778Z,4.05
2023-05-22T04:39:18.428Z,4.93
2023-05-22T04:41:46.053Z,4.38
2023-05-22T04:44:14.438Z,5.22
2023-05-22T04:46:42.638Z,4.30
2023-05-22T04:49:10.513Z,4.65
2023-05-22T04:51:37.768Z,4.70
2023-05-22T04:54:05.174Z,4.95
2023-05-22T04:56:36.675Z,4.38
2023-05-22T04:59:09.483Z,4.65
2023-05-22T05:01:39.057Z,4.35
2023-05-22T05:04:06.541Z,4.50
2023-05-22T05:06:34.921Z,4.20
2023-05-22T05:09:04.513Z,4.18
2023-05-22T05:11:31.911Z,3.67
2023-05-22T05:13:59.218Z,4.30
2023-05-22T05:16:26.796Z,4.50
2023-05-22T05:18:55.675Z,4.63
2023-05-22T05:21:23.339Z,4.15
2023-05-22T05:23:52.118Z,3.75
2023-05-22T05:26:21.849Z,4.65
2023-05-22T05:28:49.467Z,4.97
2023-05-22T05:31:17.958Z,5.18
2023-05-22T05:33:58.112Z,4.47
2023-05-22T05:36:32.490Z,4.60
2023-05-22T05:39:00.682Z,4.40
2023-05-22T05:41:29.172Z,4.20
2023-05-22T05:44:02.694Z,3.67
2023-05-22T05:46:32.814Z,4.57
2023-05-22T05:49:02.657Z,4.32
2023-05-22T05:51:30.024Z,3.90
2023-05-22T05:53:57.831Z,3.92
2023-05-22T05:56:26.134Z,4.22
2023-05-22T05:58:53.661Z,4.53
2023-05-22T06:01:34.103Z,3.83
2023-05-22T06:04:03.576Z,3.97
2023-05-22T06:06:39.411Z,3.70
2023-05-22T06:09:10.425Z,4.05
2023-05-22T06:11:56.176Z,3.70
2023-05-22T06:14:24.450Z,4.75
2023-05-22T06:16:51.799Z,4.45
2023-05-22T06:19:19.481Z,4.32
2023-05-22T06:21:47.800Z,4.20
2023-05-22T06:24:15.652Z,4.22
2023-05-22T06:26:44.063Z,4.13
2023-05-22T06:29:12.685Z,4.32
2023-05-22T06:31:40.248Z,3.47
2023-05-22T06:34:09.008Z,3.88
2023-05-22T06:36:36.626Z,3.60
2023-05-22T06:39:04.151Z,3.80
2023-05-22T06:41:50.130Z,4.10
2023-05-22T06:44:17.517Z,3.92
2023-05-22T06:46:45.484Z,4.45
2023-05-22T06:49:20.003Z,3.65
2023-05-22T06:51:51.347Z,4.10
2023-05-22T06:54:21.459Z,4.18
2023-05-22T06:59:21.237Z,4.25
2023-05-22T07:02:06.718Z,3.40
2023-05-22T07:04:53.741Z,3.55
2023-05-22T07:07:28.286Z,4.15
2023-05-22T07:09:55.584Z,4.10
2023-05-22T07:12:26.340Z,3.95
2023-05-22T07:14:55.233Z,3.67
2023-05-22T07:17:24.979Z,3.92
2023-05-22T07:19:52.814Z,4.30
2023-05-22T07:22:20.462Z,3.75
2023-05-22T07:24:48.531Z,4.15
2023-05-22T07:27:17.653Z,3.55
2023-05-22T07:29:47.722Z,3.78
2023-05-22T07:32:15.205Z,3.80
2023-05-22T07:34:44.457Z,4.10
2023-05-22T07:37:13.320Z,3.70
2023-05-22T07:39:42.579Z,3.80
2023-05-22T07:42:10.975Z,4.18
2023-05-22T07:44:46.833Z,4.40
2023-05-22T07:47:14.198Z,3.90
2023-05-22T07:49:42.331Z,4.07
2023-05-22T07:52:11.388Z,4.05
2023-05-22T07:54:40.269Z,3.80
2023-05-22T07:57:25.963Z,4.10
2023-05-22T07:59:57.119Z,3.97
2023-05-22T08:02:24.862Z,3.78
2023-05-22T08:04:52.426Z,3.40
2023-05-22T08:07:19.699Z,3.35
2023-05-22T08:09:47.060Z,4.43
2023-05-22T08:12:14.295Z,3.50
2023-05-22T08:14:41.620Z,3.30
2023-05-22T08:17:08.924Z,3.80
2023-05-22T08:19:36.859Z,3.65
2023-05-22T08:22:04.295Z,3.50
2023-05-22T08:24:32.037Z,4.00
2023-05-22T08:27:01.193Z,3.42
2023-05-22T08:29:29.118Z,3.90
2023-05-22T08:31:58.363Z,3.90
2023-05-22T08:34:26.822Z,4.03
2023-05-22T08:36:54.545Z,3.60
2023-05-22T08:39:21.922Z,3.70
2023-05-22T08:41:49.728Z,3.90
2023-05-22T08:44:17.229Z,4.05
2023-05-22T08:46:46.217Z,3.92
2023-05-22T08:49:13.808Z,4.82
2023-05-22T08:51:42.569Z,4.05
2023-05-22T08:54:10.344Z,3.90
2023-05-22T08:56:45.689Z,3.95
2023-05-22T08:59:17.431Z,4.43
2023-05-22T09:01:45.841Z,3.72
2023-05-22T09:04:14.380Z,4.00
2023-05-22T09:06:41.695Z,3.88
2023-05-22T09:09:10.624Z,3.47
2023-05-22T09:11:38.086Z,3.67
2023-05-22T09:14:12.561Z,4.07
2023-05-22T09:16:51.536Z,3.45
2023-05-22T09:19:19.146Z,3.50
2023-05-22T09:21:47.699Z,3.72
2023-05-22T09:24:15.545Z,3.83
2023-05-22T09:26:42.844Z,3.58
2023-05-22T09:29:10.263Z,4.15
2023-05-22T09:31:44.750Z,3.65
2023-05-22T09:34:14.869Z,3.88
2023-05-22T09:36:42.635Z,3.55
2023-05-22T09:39:11.073Z,3.63
2023-05-22T09:41:40.188Z,3.97
2023-05-22T09:44:13.284Z,3.75
2023-05-22T09:46:46.513Z,3.20
2023-05-22T09:49:16.466Z,3.50
2023-05-22T09:51:48.391Z,2.97
2023-05-22T09:54:17.524Z,3.13
2023-05-22T09:56:49.188Z,3.40
2023-05-22T09:59:21.934Z,3.50
2023-05-22T10:01:51.287Z,3.63
2023-05-22T10:04:19.728Z,3.35
2023-05-22T10:06:52.067Z,3.50
2023-05-22T10:09:26.157Z,3.08
2023-05-22T10:11:57.464Z,3.40
2023-05-22T10:14:26.023Z,4.00
2023-05-22T10:16:54.478Z,3.47
2023-05-22T10:19:27.091Z,3.15
2023-05-22T10:21:57.211Z,3.13
2023-05-22T10:24:25.225Z,4.00
2023-05-22T10:26:54.401Z,3.60
2023-05-22T10:29:40.886Z,3.63
2023-05-22T10:32:39.701Z,3.08
2023-05-22T10:35:38.457Z,3.42
2023-05-22T10:38:27.910Z,3.50
2023-05-22T10:40:56.027Z,3.60
2023-05-22T10:43:25.285Z,3.35
2023-05-22T10:46:06.642Z,3.83
2023-05-22T10:48:41.797Z,3.78
2023-05-22T10:51:09.435Z,3.20
2023-05-22T10:53:37.066Z,2.97
2023-05-22T10:56:16.191Z,3.20
2023-05-22T10:58:56.784Z,2.72
2023-05-22T11:01:26.734Z,3.15
2023-05-22T11:04:12.794Z,3.33
2023-05-22T11:06:46.089Z,3.65
2023-05-22T11:09:21.961Z,3.38
2023-05-22T11:12:18.437Z,3.00
2023-05-22T11:14:51.694Z,2.97
2023-05-22T11:17:31.217Z,3.65
2023-05-22T11:20:18.635Z,3.20
2023-05-22T11:23:05.435Z,3.53
2023-05-22T11:25:37.590Z,3.80
2023-05-22T11:28:06.383Z,3.40
2023-05-22T11:30:34.985Z,3.10
2023-05-22T11:33:02.963Z,4.15
2023-05-22T11:35:31.515Z,3.88
2023-05-22T11:37:59.007Z,3.92
2023-05-22T11:40:29.697Z,3.15
2023-05-22T11:42:57.488Z,3.65
2023-05-22T11:45:25.387Z,3.45
2023-05-22T11:47:52.993Z,3.05
2023-05-22T11:50:43.595Z,3.92
2023-05-22T11:53:08.610Z,3.25
2023-05-22T11:55:35.893Z,3.28
2023-05-22T11:58:03.269Z,3.75
2023-05-22T12:00:31.803Z,4.03
2023-05-22T12:02:59.600Z,3.90
2023-05-22T12:05:27.145Z,4.30
2023-05-22T12:07:54.841Z,3.53
2023-05-22T12:10:22.332Z,3.60
2023-05-22T12:12:49.707Z,3.15
2023-05-22T12:15:22.986Z,3.60
2023-05-22T12:17:50.447Z,3.28
2023-05-22T12:20:17.928Z,3.80
2023-05-22T12:22:45.304Z,3.60
2023-05-22T12:25:20.324Z,3.47
2023-05-22T12:27:47.923Z,3.60
2023-05-22T12:30:16.694Z,2.80
2023-05-22T12:32:51.490Z,3.63
2023-05-22T12:35:19.321Z,3.15
2023-05-22T12:37:53.151Z,3.28
2023-05-22T12:40:20.493Z,2.93
2023-05-22T12:42:48.619Z,3.28
2023-05-22T12:45:18.125Z,3.67
2023-05-22T12:47:46.437Z,3.38
2023-05-22T12:50:14.187Z,3.60
2023-05-22T12:52:41.594Z,3.30
2023-05-22T12:55:11.343Z,3.00
2023-05-22T12:57:38.976Z,3.63
2023-05-22T13:00:07.216Z,3.92
2023-05-22T13:02:35.650Z,3.05
2023-05-22T13:05:03.324Z,3.35
2023-05-22T13:07:33.447Z,2.72
2023-05-22T13:10:00.997Z,2.72
2023-05-22T13:12:28.371Z,3.38
2023-05-22T13:14:55.820Z,2.95
2023-05-22T13:17:23.119Z,3.30
2023-05-22T13:19:50.387Z,3.05
2023-05-22T13:22:18.369Z,3.22
2023-05-22T13:24:46.013Z,3.58
2023-05-22T13:27:13.462Z,3.75
2023-05-22T13:29:41.001Z,4.07
2023-05-22T13:32:08.369Z,3.67
2023-05-22T13:34:35.839Z,4.10
2023-05-22T13:37:03.589Z,3.72
2023-05-22T13:39:30.840Z,3.60
2023-05-22T13:41:58.356Z,4.05
2023-05-22T13:44:26.558Z,3.63
2023-05-22T13:46:54.311Z,3.38
2023-05-22T13:49:21.629Z,3.50
2023-05-22T13:51:50.019Z,3.10
2023-05-22T13:54:17.502Z,3.35
2023-05-22T13:56:44.701Z,3.03
2023-05-22T13:59:11.998Z,3.38
2023-05-22T14:01:39.665Z,2.85
2023-05-22T14:04:07.316Z,3.03
2023-05-22T14:06:34.835Z,3.20
2023-05-22T14:09:02.700Z,3.08
2023-05-22T14:11:30.235Z,2.60
2023-05-22T14:13:57.555Z,3.20
2023-05-22T14:16:24.764Z,4.63
2023-05-22T14:18:52.706Z,2.40
2023-05-22T14:21:20.555Z,3.20
2023-05-22T14:23:47.933Z,2.70
2023-05-22T14:26:15.197Z,2.92
2023-05-22T14:28:43.085Z,3.40
2023-05-22T14:31:10.571Z,2.95
2023-05-22T14:33:37.856Z,2.80
2023-05-22T14:36:05.295Z,2.75
2023-05-22T14:38:36.213Z,2.80
2023-05-22T14:41:03.765Z,3.03
2023-05-22T14:43:31.614Z,2.50
2023-05-22T14:46:00.591Z,2.97
2023-05-22T14:48:29.576Z,2.53
2023-05-22T14:50:57.080Z,2.40
2023-05-22T14:53:26.884Z,2.65
2023-05-22T14:55:54.169Z,2.60
2023-05-22T14:58:21.528Z,2.33
2023-05-22T15:00:49.133Z,3.03
2023-05-22T15:03:17.014Z,3.30
2023-05-22T15:05:44.515Z,2.80
2023-05-22T15:08:14.538Z,2.60
2023-05-22T15:10:41.871Z,2.70
2023-05-22T15:13:09.247Z,3.20
2023-05-22T15:15:36.725Z,3.05
2023-05-22T15:18:04.974Z,2.92
2023-05-22T15:20:32.535Z,2.90
2023-05-22T15:23:00.204Z,2.70
2023-05-22T15:25:27.708Z,2.28
2023-05-22T15:27:55.060Z,2.97
2023-05-22T15:30:23.525Z,2.75
2023-05-22T15:32:51.017Z,2.90
2023-05-22T15:35:18.387Z,2.50
2023-05-22T15:37:46.586Z,4.45
2023-05-22T15:40:18.404Z,2.55
2023-05-22T15:42:45.703Z,2.45
2023-05-22T15:45:13.030Z,1.88
2023-05-22T15:47:41.167Z,2.67
2023-05-22T15:50:08.885Z,2.90
2023-05-22T15:52:36.321Z,2.58
2023-05-22T15:55:03.897Z,2.35
2023-05-22T15:57:33.750Z,2.80
2023-05-22T16:00:01.183Z,2.45
2023-05-22T16:02:35.162Z,2.45
2023-05-22T16:05:02.557Z,2.40
2023-05-22T16:07:32.347Z,2.40
2023-05-22T16:09:59.846Z,2.42
2023-05-22T16:12:27.195Z,2.13
2023-05-22T16:15:00.301Z,3.13
2023-05-22T16:17:34.258Z,2.95
2023-05-22T16:20:05.239Z,3.00
2023-05-22T16:22:44.332Z,1.80
2023-05-22T16:25:17.303Z,1.98
2023-05-22T16:27:45.266Z,1.90
2023-05-22T16:30:14.848Z,2.10
2023-05-22T16:32:42.775Z,2.70
2023-05-22T16:35:10.517Z,2.30
2023-05-22T16:37:38.014Z,2.08
2023-05-22T16:40:06.105Z,2.17
2023-05-22T16:42:33.544Z,2.10
2023-05-22T16:45:01.491Z,3.10
2023-05-22T16:47:34.126Z,2.50
2023-05-22T16:50:01.541Z,7.13
2023-05-22T16:52:34.244Z,5.35
2023-05-22T16:55:01.775Z,2.50
2023-05-22T16:57:32.632Z,2.33
2023-05-22T17:00:00.244Z,2.55
2023-05-22T17:02:28.205Z,2.40
2023-05-22T17:04:55.544Z,2.33
2023-05-22T17:07:23.528Z,2.40
2023-05-22T17:09:50.879Z,2.85
2023-05-22T17:12:18.388Z,3.50
2023-05-22T17:14:45.898Z,3.30
2023-05-22T17:17:13.254Z,3.38
2023-05-22T17:19:40.577Z,3.50
2023-05-22T17:22:07.959Z,3.20
2023-05-22T17:24:35.218Z,3.28
2023-05-22T17:27:03.718Z,3.20
2023-05-22T17:29:31.001Z,3.40
2023-05-22T17:31:58.417Z,4.90
2023-05-22T17:34:25.812Z,2.80
2023-05-22T17:36:53.093Z,3.45
2023-05-22T17:39:20.517Z,3.05
2023-05-22T17:41:47.752Z,2.47
2023-05-22T17:44:15.016Z,2.33
2023-05-22T17:46:42.413Z,2.40
2023-05-22T17:49:09.720Z,2.70
2023-05-22T17:51:37.001Z,2.75
2023-05-22T17:54:06.092Z,4.43
2023-05-22T17:56:33.277Z,3.67
2023-05-22T17:59:00.694Z,3.30
2023-05-22T18:01:28.869Z,3.72
2023-05-22T18:03:56.445Z,3.35
2023-05-22T18:06:24.447Z,3.17
2023-05-22T18:08:51.821Z,3.67
2023-05-22T18:11:19.374Z,5.15
2023-05-22T18:13:46.726Z,4.32
2023-05-22T18:16:17.291Z,6.80
2023-05-22T18:18:44.680Z,6.93
2023-05-22T18:21:12.075Z,12.07
2023-05-22T18:23:39.411Z,10.57
2023-05-22T18:26:06.845Z,8.80
2023-05-22T18:28:34.226Z,6.53
2023-05-22T18:31:01.590Z,4.75
2023-05-22T18:33:28.803Z,6.75
2023-05-22T18:35:57.404Z,12.32
2023-05-22T18:38:25.373Z,16.13
2023-05-22T18:40:53.479Z,10.85
2023-05-22T18:43:27.715Z,5.75
2023-05-22T18:45:58.380Z,5.15
2023-05-22T18:48:27.240Z,4.28
2023-05-22T18:50:57.355Z,4.07
2023-05-22T18:53:26.548Z,4.07
2023-05-22T18:55:54.434Z,6.63
2023-05-22T18:58:22.134Z,5.00
2023-05-22T19:00:49.549Z,4.07
2023-05-22T19:03:17.059Z,3.55
2023-05-22T19:05:44.733Z,9.35
2023-05-22T19:08:12.066Z,9.68
2023-05-22T19:10:39.678Z,8.10
2023-05-22T19:13:07.533Z,11.77
2023-05-22T19:15:35.128Z,8.98
2023-05-22T19:18:02.986Z,4.95
2023-05-22T19:20:30.517Z,6.88
2023-05-22T19:22:57.912Z,4.38
2023-05-22T19:25:25.165Z,6.72
2023-05-22T19:27:52.510Z,8.13
2023-05-22T19:30:22.024Z,3.75
2023-05-22T19:32:50.061Z,4.63
2023-05-22T19:35:17.694Z,4.40
2023-05-22T19:37:44.904Z,12.00
2023-05-22T19:40:12.360Z,6.95
2023-05-22T19:42:41.318Z,9.00
2023-05-22T19:45:09.187Z,6.38
2023-05-22T19:47:36.487Z,4.85
2023-05-22T19:50:04.055Z,4.65
2023-05-22T19:52:32.360Z,8.00
2023-05-22T19:54:59.608Z,8.50
2023-05-22T19:57:27.299Z,10.07
2023-05-22T19:59:54.874Z,6.22
2023-05-22T20:02:22.552Z,14.20
2023-05-22T20:04:49.854Z,12.63
2023-05-22T20:07:17.303Z,8.70
2023-05-22T20:09:46.394Z,7.38
2023-05-22T20:12:14.811Z,8.95
2023-05-22T20:14:42.067Z,14.10
2023-05-22T20:17:09.422Z,9.45
2023-05-22T20:19:38.734Z,4.80
2023-05-22T20:22:08.172Z,5.57
2023-05-22T20:24:35.739Z,13.20
2023-05-22T20:27:05.244Z,11.95
2023-05-22T20:29:32.719Z,7.63
2023-05-22T20:32:00.186Z,4.35
2023-05-22T20:34:28.616Z,4.55
2023-05-22T20:36:55.936Z,4.57
2023-05-22T20:39:26.718Z,4.35
2023-05-22T20:41:54.537Z,3.95
2023-05-22T20:44:24.924Z,6.20
2023-05-22T20:46:55.045Z,10.85
2023-05-22T20:49:22.400Z,5.20
2023-05-22T20:51:54.546Z,4.57
2023-05-22T20:54:21.907Z,5.90
2023-05-22T20:56:50.260Z,14.93
2023-05-22T20:59:17.553Z,14.55
2023-05-22T21:01:46.938Z,7.95
2023-05-22T21:04:14.191Z,12.00
2023-05-22T21:06:41.498Z,11.10
2023-05-22T21:09:08.931Z,11.43
2023-05-22T21:11:36.272Z,6.50
2023-05-22T21:14:03.604Z,6.53
2023-05-22T21:16:30.929Z,7.75
2023-05-22T21:18:58.119Z,6.38
2023-05-22T21:21:25.630Z,6.07
2023-05-22T21:23:53.086Z,5.40
2023-05-22T21:26:22.636Z,5.47
2023-05-22T21:28:50.244Z,9.40
2023-05-22T21:31:17.529Z,10.95
2023-05-22T21:33:45.794Z,6.93
2023-05-22T21:36:13.121Z,4.88
2023-05-22T21:38:40.394Z,7.65
2023-05-22T21:41:07.783Z,8.88
2023-05-22T21:43:34.942Z,11.40
2023-05-22T21:46:02.308Z,7.80
2023-05-22T21:48:29.566Z,5.90
2023-05-22T21:50:56.942Z,8.00
2023-05-22T21:53:24.175Z,8.23
2023-05-22T21:55:51.862Z,7.03
2023-05-22T21:58:19.105Z,8.25
2023-05-22T22:00:46.273Z,9.98
2023-05-22T22:03:13.817Z,9.10
2023-05-22T22:05:41.330Z,8.68
2023-05-22T22:08:08.536Z,7.20
2023-05-22T22:10:35.828Z,7.40
2023-05-22T22:13:03.342Z,6.13
2023-05-22T22:15:32.236Z,6.50
2023-05-22T22:18:02.415Z,5.90
2023-05-22T22:20:44.078Z,5.55
2023-05-22T22:23:12.693Z,6.20
2023-05-22T22:25:39.944Z,5.60
2023-05-22T22:28:07.622Z,7.03
2023-05-22T22:30:36.143Z,6.20
2023-05-22T22:33:03.870Z,18.92
2023-05-22T22:35:31.369Z,17.98
2023-05-22T22:37:59.192Z,15.57
2023-05-22T22:40:27.102Z,11.98
2023-05-22T22:42:54.513Z,7.47
2023-05-22T22:45:21.758Z,6.20
2023-05-22T22:47:48.981Z,8.98
2023-05-22T22:50:16.275Z,9.77
2023-05-22T22:52:46.652Z,7.05
2023-05-22T22:55:14.119Z,8.43
2023-05-22T22:57:44.805Z,6.60
2023-05-22T23:00:13.452Z,5.75
2023-05-22T23:02:41.365Z,6.40
2023-05-22T23:05:09.209Z,8.10
2023-05-22T23:07:36.646Z,8.57
2023-05-22T23:10:04.494Z,7.00
2023-05-22T23:12:35.229Z,6.38
2023-05-22T23:15:03.351Z,6.60
2023-05-22T23:17:34.403Z,9.73
2023-05-22T23:20:02.050Z,8.63
2023-05-22T23:22:31.334Z,6.88
2023-05-22T23:25:00.374Z,13.48
2023-05-22T23:27:27.715Z,7.78
2023-05-22T23:29:54.985Z,7.85
2023-05-22T23:32:22.580Z,10.52
2023-05-22T23:34:49.936Z,8.40
2023-05-22T23:37:17.294Z,5.57
2023-05-22T23:39:44.701Z,5.40
2023-05-22T23:42:12.229Z,6.57
2023-05-22T23:44:39.658Z,6.40
2023-05-22T23:47:07.274Z,6.97
2023-05-22T23:49:34.645Z,7.38
2023-05-22T23:52:01.998Z,14.75
2023-05-22T23:54:29.355Z,13.00
2023-05-22T23:56:56.784Z,7.30
2023-05-22T23:59:24.019Z,6.45
